createdAt,value
2023-05-22T00:01:50.334Z,18.94
2023-05-22T00:04:16.985Z,18.88
2023-05-22T00:06:43.635Z,18.82
2023-05-22T00:09:10.330Z,18.76
2023-05-22T00:11:37.040Z,18.71
2023-05-22T00:14:03.865Z,18.66
2023-05-22T00:16:30.743Z,18.60
2023-05-22T00:18:57.655Z,18.55
2023-05-22T00:21:24.572Z,18.49
2023-05-22T00:23:51.220Z,18.44
2023-05-22T00:26:17.915Z,18.39
2023-05-22T00:28:44.581Z,18.34
2023-05-22T00:31:11.365Z,18.27
2023-05-22T00:33:37.992Z,18.22
2023-05-22T00:36:05.504Z,18.16
2023-05-22T00:38:34.552Z,18.10
2023-05-22T00:41:02.647Z,18.06
2023-05-22T00:43:29.411Z,17.99
2023-05-22T00:45:56.650Z,17.95
2023-05-22T00:48:23.964Z,17.89
2023-05-22T00:50:51.507Z,17.85
2023-05-22T00:53:22.764Z,17.81
2023-05-22T00:55:50.243Z,17.78
2023-05-22T00:58:18.457Z,17.73
2023-05-22T01:00:45.778Z,17.61
2023-05-22T01:03:17.895Z,17.64
2023-05-22T01:05:45.682Z,17.61
2023-05-22T01:08:12.589Z,17.58
2023-05-22T01:10:40.562Z,17.52
2023-05-22T01:13:16.168Z,17.41
2023-05-22T01:16:01.603Z,17.44
2023-05-22T01:19:04.353Z,17.38
2023-05-22T01:22:05.786Z,17.34
2023-05-22T01:24:47.081Z,17.32
2023-05-22T01:27:40.404Z,17.27
2023-05-22T01:30:40.427Z,17.23
2023-05-22T01:33:09.597Z,17.23
2023-05-22T01:35:39.633Z,17.21
2023-05-22T01:38:08.491Z,17.21
2023-05-22T01:40:36.982Z,17.18
2023-05-22T01:43:04.404Z,17.17
2023-05-22T01:45:31.257Z,17.16
2023-05-22T01:47:58.826Z,17.16
2023-05-22T01:50:25.690Z,17.13
2023-05-22T01:53:11.951Z,17.12
2023-05-22T01:55:46.971Z,17.11
2023-05-22T01:58:26.407Z,17.09
2023-05-22T02:00:58.047Z,17.08
2023-05-22T02:03:30.145Z,17.08
2023-05-22T02:06:00.183Z,17.07
2023-05-22T02:08:28.223Z,17.07
2023-05-22T02:10:56.794Z,17.04
2023-05-22T02:13:23.676Z,17.02
2023-05-22T02:15:51.642Z,17.00
2023-05-22T02:18:18.396Z,16.97
2023-05-22T02:20:46.634Z,16.94
2023-05-22T02:23:13.563Z,16.91
2023-05-22T02:25:40.400Z,16.88
2023-05-22T02:28:07.048Z,16.82
2023-05-22T02:30:33.763Z,16.79
2023-05-22T02:33:00.638Z,16.75
2023-05-22T02:35:27.366Z,16.72
2023-05-22T02:37:54.329Z,16.65
2023-05-22T02:40:21.125Z,16.60
2023-05-22T02:42:47.888Z,16.53
2023-05-22T02:45:15.298Z,16.48
2023-05-22T02:47:42.056Z,16.43
2023-05-22T02:50:09.087Z,16.39
2023-05-22T02:52:35.992Z,16.35
2023-05-22T02:55:03.944Z,16.32
2023-05-22T02:57:30.723Z,16.29
2023-05-22T02:59:58.829Z,16.18
2023-05-22T03:02:26.491Z,16.24
2023-05-22T03:04:53.184Z,16.21
2023-05-22T03:07:19.848Z,16.19
2023-05-22T03:09:46.443Z,16.17
2023-05-22T03:12:13.076Z,16.13
2023-05-22T03:14:39.971Z,16.11
2023-05-22T03:17:06.734Z,16.08
2023-05-22T03:19:33.641Z,16.07
2023-05-22T03:22:00.369Z,16.06
2023-05-22T03:24:27.178Z,16.05
2023-05-22T03:26:54.140Z,16.04
2023-05-22T03:29:30.802Z,16.02
2023-05-22T03:31:57.692Z,16.00
2023-05-22T03:34:25.442Z,15.99
2023-05-22T03:36:52.237Z,15.98
2023-05-22T03:39:18.931Z,15.96
2023-05-22T03:41:54.535Z,15.95
2023-05-22T03:44:23.307Z,15.94
2023-05-22T03:46:50.266Z,15.92
2023-05-22T03:49:16.949Z,15.92
2023-05-22T03:51:43.703Z,15.92
2023-05-22T03:54:10.380Z,15.92
2023-05-22T03:56:37.535Z,15.94
2023-05-22T03:59:04.205Z,15.95
2023-05-22T04:01:30.938Z,15.98
2023-05-22T04:03:57.565Z,16.00
2023-05-22T04:06:24.372Z,16.01
2023-05-22T04:08:51.128Z,16.03
2023-05-22T04:11:17.788Z,16.03
2023-05-22T04:13:45.126Z,16.06
2023-05-22T04:16:11.898Z,16.05
2023-05-22T04:18:38.521Z,16.07
2023-05-22T04:21:05.699Z,16.08
2023-05-22T04:23:32.462Z,16.12
2023-05-22T04:25:59.106Z,16.15
2023-05-22T04:28:25.890Z,16.21
2023-05-22T04:30:52.549Z,16.30
2023-05-22T04:33:19.230Z,16.42
2023-05-22T04:35:45.859Z,16.55
2023-05-22T04:38:12.457Z,16.69
2023-05-22T04:40:39.322Z,16.84
2023-05-22T04:43:06.324Z,16.95
2023-05-22T04:45:33.130Z,17.07
2023-05-22T04:48:00.195Z,17.14
2023-05-22T04:50:27.093Z,17.23
2023-05-22T04:52:53.696Z,17.31
2023-05-22T04:55:20.464Z,17.37
2023-05-22T04:57:47.633Z,17.43
2023-05-22T05:00:15.087Z,17.49
2023-05-22T05:02:42.100Z,17.53
2023-05-22T05:05:09.023Z,17.59
2023-05-22T05:07:39.871Z,17.65
2023-05-22T05:10:09.588Z,17.71
2023-05-22T05:12:37.007Z,17.74
2023-05-22T05:15:03.969Z,17.81
2023-05-22T05:17:30.612Z,17.86
2023-05-22T05:19:57.387Z,17.90
2023-05-22T05:22:24.222Z,17.95
2023-05-22T05:24:50.944Z,17.99
2023-05-22T05:27:17.671Z,18.08
2023-05-22T05:29:45.033Z,18.13
2023-05-22T05:32:19.235Z,18.23
2023-05-22T05:35:06.457Z,18.33
2023-05-22T05:37:45.566Z,18.43
2023-05-22T05:40:13.421Z,18.54
2023-05-22T05:42:45.037Z,18.66
2023-05-22T05:45:13.592Z,18.74
2023-05-22T05:47:40.336Z,18.85
2023-05-22T05:50:08.198Z,18.97
2023-05-22T05:52:37.835Z,19.08
2023-05-22T05:55:10.181Z,19.19
2023-05-22T05:57:37.525Z,19.28
2023-05-22T06:00:07.819Z,19.40
2023-05-22T06:02:43.293Z,19.51
2023-05-22T06:05:23.784Z,19.63
2023-05-22T06:07:57.065Z,19.73
2023-05-22T06:10:24.003Z,19.83
2023-05-22T06:12:58.381Z,19.94
2023-05-22T06:15:25.572Z,20.04
2023-05-22T06:17:52.401Z,20.15
2023-05-22T06:20:19.958Z,20.24
2023-05-22T06:22:46.769Z,20.34
2023-05-22T06:25:13.479Z,20.43
2023-05-22T06:27:40.309Z,20.52
2023-05-22T06:30:07.798Z,20.63
2023-05-22T06:32:38.890Z,20.71
2023-05-22T06:35:07.221Z,20.79
2023-05-22T06:37:33.803Z,20.86
2023-05-22T06:40:01.109Z,20.93
2023-05-22T06:42:33.609Z,21.02
2023-05-22T06:45:20.301Z,21.11
2023-05-22T06:48:02.041Z,21.20
2023-05-22T06:50:30.652Z,21.30
2023-05-22T06:52:57.709Z,21.37
2023-05-22T06:55:25.259Z,21.42
2023-05-22T06:58:02.891Z,21.48
2023-05-22T07:00:31.273Z,21.58
2023-05-22T07:03:07.768Z,21.63
2023-05-22T07:06:02.013Z,21.69
2023-05-22T07:08:30.439Z,21.77
2023-05-22T07:10:57.506Z,21.82
2023-05-22T07:13:24.181Z,21.90
2023-05-22T07:15:50.961Z,21.94
2023-05-22T07:18:17.632Z,22.03
2023-05-22T07:20:44.865Z,22.06
2023-05-22T07:23:15.368Z,22.10
2023-05-22T07:25:43.087Z,22.13
2023-05-22T07:28:11.564Z,22.16
2023-05-22T07:30:50.081Z,22.19
2023-05-22T07:33:16.753Z,22.24
2023-05-22T07:35:44.496Z,22.29
2023-05-22T07:38:11.512Z,22.35
2023-05-22T07:40:41.900Z,22.37
2023-05-22T07:43:08.554Z,22.42
2023-05-22T07:45:35.994Z,22.50
2023-05-22T07:48:06.887Z,22.56
2023-05-22T07:50:36.161Z,22.62
2023-05-22T07:53:03.802Z,22.65
2023-05-22T07:55:34.013Z,22.71
2023-05-22T07:58:03.319Z,22.79
2023-05-22T08:00:34.745Z,22.86
2023-05-22T08:03:01.555Z,22.90
2023-05-22T08:05:28.403Z,22.98
2023-05-22T08:07:55.108Z,23.03
2023-05-22T08:10:22.641Z,23.07
2023-05-22T08:12:49.238Z,23.12
2023-05-22T08:15:15.900Z,23.19
2023-05-22T08:17:42.659Z,23.23
2023-05-22T08:20:09.788Z,23.27
2023-05-22T08:22:38.812Z,23.30
2023-05-22T08:25:05.628Z,23.33
2023-05-22T08:27:32.359Z,23.37
2023-05-22T08:29:58.986Z,23.39
2023-05-22T08:32:25.657Z,23.46
2023-05-22T08:34:52.400Z,23.50
2023-05-22T08:37:19.160Z,23.55
2023-05-22T08:39:45.764Z,23.60
2023-05-22T08:42:12.618Z,23.61
2023-05-22T08:44:39.548Z,23.64
2023-05-22T08:47:07.165Z,23.67
2023-05-22T08:49:36.739Z,23.71
2023-05-22T08:52:14.762Z,23.78
2023-05-22T08:54:42.586Z,23.86
2023-05-22T08:57:09.704Z,23.92
2023-05-22T08:59:37.867Z,23.99
2023-05-22T09:02:06.770Z,24.06
2023-05-22T09:04:33.661Z,24.13
2023-05-22T09:07:00.396Z,24.23
2023-05-22T09:09:27.094Z,24.30
2023-05-22T09:11:54.935Z,24.35
2023-05-22T09:14:21.550Z,24.40
2023-05-22T09:16:51.524Z,24.48
2023-05-22T09:19:18.572Z,24.54
2023-05-22T09:21:45.247Z,24.54
2023-05-22T09:24:12.148Z,24.56
2023-05-22T09:26:39.652Z,24.61
2023-05-22T09:29:09.561Z,24.66
2023-05-22T09:31:43.589Z,24.70
2023-05-22T09:34:12.564Z,24.75
2023-05-22T09:36:39.173Z,24.80
2023-05-22T09:39:05.912Z,24.85
2023-05-22T09:41:38.452Z,24.92
2023-05-22T09:44:15.292Z,24.98
2023-05-22T09:46:44.270Z,25.07
2023-05-22T09:49:14.148Z,25.13
2023-05-22T09:51:45.399Z,25.18
2023-05-22T09:54:14.039Z,25.25
2023-05-22T09:56:43.356Z,25.34
2023-05-22T09:59:13.398Z,25.39
2023-05-22T10:01:41.310Z,25.48
2023-05-22T10:04:12.669Z,25.43
2023-05-22T10:06:40.650Z,25.60
2023-05-22T10:09:15.856Z,25.70
2023-05-22T10:11:45.165Z,25.77
2023-05-22T10:14:12.548Z,25.86
2023-05-22T10:16:41.203Z,25.88
2023-05-22T10:19:08.153Z,25.94
2023-05-22T10:21:35.957Z,26.00
2023-05-22T10:24:03.525Z,25.92
2023-05-22T10:26:30.479Z,26.05
2023-05-22T10:29:11.138Z,26.11
2023-05-22T10:32:00.576Z,26.14
2023-05-22T10:34:47.879Z,26.30
2023-05-22T10:37:52.049Z,26.31
2023-05-22T10:40:32.677Z,26.41
2023-05-22T10:43:01.056Z,26.45
2023-05-22T10:45:28.857Z,26.54
2023-05-22T10:48:11.846Z,26.54
2023-05-22T10:50:40.165Z,26.63
2023-05-22T10:53:30.851Z,26.64
2023-05-22T10:55:59.269Z,26.67
2023-05-22T10:58:28.969Z,26.77
2023-05-22T11:01:18.879Z,26.82
2023-05-22T11:04:11.198Z,26.92
2023-05-22T11:06:45.337Z,27.01
2023-05-22T11:09:27.204Z,27.08
2023-05-22T11:12:13.917Z,27.07
2023-05-22T11:14:40.586Z,27.09
2023-05-22T11:17:07.337Z,27.10
2023-05-22T11:19:34.455Z,27.14
2023-05-22T11:22:01.719Z,27.24
2023-05-22T11:24:32.965Z,27.23
2023-05-22T11:27:06.411Z,27.28
2023-05-22T11:29:33.804Z,27.29
2023-05-22T11:32:01.788Z,27.31
2023-05-22T11:34:28.701Z,27.33
2023-05-22T11:36:59.812Z,27.42
2023-05-22T11:39:26.884Z,27.45
2023-05-22T11:41:53.657Z,27.47
2023-05-22T11:44:20.517Z,27.54
2023-05-22T11:46:47.313Z,27.56
2023-05-22T11:49:14.141Z,27.56
2023-05-22T11:51:40.823Z,27.57
2023-05-22T11:54:07.755Z,27.68
2023-05-22T11:56:34.375Z,27.69
2023-05-22T11:59:01.508Z,27.75
2023-05-22T12:01:28.323Z,27.79
2023-05-22T12:03:55.125Z,27.92
2023-05-22T12:06:22.146Z,28.02
2023-05-22T12:08:48.958Z,28.17
2023-05-22T12:11:15.612Z,28.18
2023-05-22T12:13:42.244Z,28.25
2023-05-22T12:16:20.044Z,28.28
2023-05-22T12:18:46.756Z,28.26
2023-05-22T12:21:13.417Z,28.19
2023-05-22T12:23:49.162Z,28.15
2023-05-22T12:26:16.137Z,28.18
2023-05-22T12:28:43.232Z,28.17
2023-05-22T12:31:09.922Z,28.26
2023-05-22T12:33:39.356Z,28.33
2023-05-22T12:36:09.342Z,28.44
2023-05-22T12:38:38.096Z,28.43
2023-05-22T12:41:04.949Z,28.53
2023-05-22T12:43:31.734Z,28.55
2023-05-22T12:46:00.458Z,28.64
2023-05-22T12:48:29.097Z,28.62
2023-05-22T12:50:55.914Z,28.66
2023-05-22T12:53:22.506Z,28.68
2023-05-22T12:55:49.207Z,28.73
2023-05-22T12:58:16.215Z,28.69
2023-05-22T13:00:42.890Z,28.75
2023-05-22T13:03:09.957Z,28.72
2023-05-22T13:05:36.728Z,28.73
2023-05-22T13:08:03.340Z,28.74
2023-05-22T13:10:30.109Z,28.71
2023-05-22T13:12:56.924Z,28.69
2023-05-22T13:15:23.680Z,28.74
2023-05-22T13:17:50.365Z,28.77
2023-05-22T13:20:16.981Z,28.78
2023-05-22T13:22:43.671Z,28.83
2023-05-22T13:25:10.398Z,28.88
2023-05-22T13:27:37.023Z,28.86
2023-05-22T13:30:03.989Z,28.93
2023-05-22T13:32:30.660Z,28.89
2023-05-22T13:34:57.277Z,28.88
2023-05-22T13:37:23.989Z,28.88
2023-05-22T13:39:50.921Z,28.98
2023-05-22T13:42:17.709Z,29.19
2023-05-22T13:44:44.712Z,29.19
2023-05-22T13:47:11.564Z,29.19
2023-05-22T13:49:38.160Z,29.21
2023-05-22T13:52:04.961Z,29.34
2023-05-22T13:54:31.569Z,29.28
2023-05-22T13:56:58.166Z,29.27
2023-05-22T13:59:24.849Z,29.38
2023-05-22T14:01:51.509Z,29.48
2023-05-22T14:04:18.130Z,29.55
2023-05-22T14:06:44.814Z,29.64
2023-05-22T14:09:11.490Z,29.69
2023-05-22T14:11:38.262Z,29.75
2023-05-22T14:14:05.017Z,29.88
2023-05-22T14:16:31.770Z,30.03
2023-05-22T14:19:00.200Z,30.19
2023-05-22T14:21:27.613Z,30.42
2023-05-22T14:23:54.356Z,30.49
2023-05-22T14:26:20.996Z,30.54
2023-05-22T14:28:47.772Z,30.60
2023-05-22T14:31:14.429Z,30.76
2023-05-22T14:33:41.293Z,30.98
2023-05-22T14:36:08.041Z,31.20
2023-05-22T14:38:34.727Z,31.27
2023-05-22T14:41:02.085Z,31.40
2023-05-22T14:43:28.702Z,31.67
2023-05-22T14:45:55.888Z,31.89
2023-05-22T14:48:22.632Z,32.00
2023-05-22T14:50:49.247Z,32.02
2023-05-22T14:53:15.916Z,31.93
2023-05-22T14:55:42.608Z,31.93
2023-05-22T14:58:10.234Z,31.88
2023-05-22T15:00:36.892Z,31.87
2023-05-22T15:03:03.991Z,31.94
2023-05-22T15:05:30.805Z,32.03
2023-05-22T15:07:57.562Z,32.09
2023-05-22T15:10:27.164Z,32.18
2023-05-22T15:12:54.206Z,32.26
2023-05-22T15:15:20.894Z,32.33
2023-05-22T15:17:47.511Z,32.34
2023-05-22T15:20:14.132Z,32.24
2023-05-22T15:22:40.883Z,32.06
2023-05-22T15:25:10.440Z,31.82
2023-05-22T15:27:38.713Z,31.88
2023-05-22T15:30:06.335Z,31.94
2023-05-22T15:32:33.057Z,31.89
2023-05-22T15:34:59.783Z,32.14
2023-05-22T15:37:27.921Z,32.09
2023-05-22T15:39:55.243Z,32.07
2023-05-22T15:42:21.918Z,32.01
2023-05-22T15:44:48.536Z,31.96
2023-05-22T15:47:15.140Z,31.84
2023-05-22T15:49:41.805Z,31.68
2023-05-22T15:52:08.426Z,31.62
2023-05-22T15:54:35.054Z,31.67
2023-05-22T15:57:01.652Z,31.87
2023-05-22T15:59:28.260Z,32.13
2023-05-22T16:01:54.878Z,32.39
2023-05-22T16:04:21.481Z,32.71
2023-05-22T16:06:48.078Z,32.98
2023-05-22T16:09:14.710Z,33.14
2023-05-22T16:11:41.303Z,33.21
2023-05-22T16:14:08.075Z,33.19
2023-05-22T16:16:34.856Z,33.00
2023-05-22T16:19:01.568Z,32.80
2023-05-22T16:21:28.251Z,32.49
2023-05-22T16:23:57.564Z,32.22
2023-05-22T16:26:24.186Z,32.03
2023-05-22T16:28:50.771Z,31.88
2023-05-22T16:31:19.322Z,31.70
2023-05-22T16:33:46.155Z,31.59
2023-05-22T16:36:12.767Z,31.57
2023-05-22T16:38:39.341Z,31.70
2023-05-22T16:41:05.951Z,31.89
2023-05-22T16:43:32.624Z,32.14
2023-05-22T16:45:59.245Z,32.44
2023-05-22T16:48:26.019Z,32.81
2023-05-22T16:50:52.675Z,33.17
2023-05-22T16:53:19.759Z,33.47
2023-05-22T16:55:46.458Z,33.78
2023-05-22T16:58:13.158Z,34.07
2023-05-22T17:00:39.903Z,34.30
2023-05-22T17:03:06.914Z,34.49
2023-05-22T17:05:34.382Z,34.66
2023-05-22T17:08:00.963Z,34.79
2023-05-22T17:10:27.574Z,34.90
2023-05-22T17:12:54.331Z,34.99
2023-05-22T17:15:21.057Z,35.04
2023-05-22T17:17:47.854Z,35.05
2023-05-22T17:20:14.501Z,35.05
2023-05-22T17:22:42.776Z,35.04
2023-05-22T17:25:10.008Z,35.00
2023-05-22T17:27:37.094Z,34.96
2023-05-22T17:30:05.052Z,34.92
2023-05-22T17:32:31.782Z,34.79
2023-05-22T17:34:58.934Z,34.57
2023-05-22T17:37:25.658Z,34.24
2023-05-22T17:39:53.330Z,33.91
2023-05-22T17:42:19.920Z,33.53
2023-05-22T17:44:46.537Z,33.42
2023-05-22T17:47:13.206Z,33.22
2023-05-22T17:49:39.886Z,32.99
2023-05-22T17:52:06.677Z,32.75
2023-05-22T17:54:34.320Z,32.49
2023-05-22T17:57:01.243Z,32.15
2023-05-22T17:59:27.964Z,31.99
2023-05-22T18:01:54.672Z,31.73
2023-05-22T18:04:21.350Z,31.42
2023-05-22T18:06:48.105Z,31.11
2023-05-22T18:09:14.841Z,30.79
2023-05-22T18:11:41.603Z,30.48
2023-05-22T18:14:08.359Z,30.15
2023-05-22T18:16:34.981Z,29.83
2023-05-22T18:19:01.745Z,29.52
2023-05-22T18:21:28.614Z,29.24
2023-05-22T18:23:55.728Z,28.95
2023-05-22T18:26:22.616Z,28.68
2023-05-22T18:28:49.300Z,28.44
2023-05-22T18:31:16.013Z,28.21
2023-05-22T18:33:42.686Z,28.00
2023-05-22T18:36:09.329Z,27.79
2023-05-22T18:38:36.160Z,27.59
2023-05-22T18:41:02.788Z,27.40
2023-05-22T18:43:29.399Z,27.21
2023-05-22T18:45:56.875Z,27.02
2023-05-22T18:48:24.378Z,26.84
2023-05-22T18:50:51.491Z,26.64
2023-05-22T18:53:18.261Z,26.46
2023-05-22T18:55:45.066Z,26.28
2023-05-22T18:58:11.837Z,26.07
2023-05-22T19:00:38.538Z,25.92
2023-05-22T19:03:08.335Z,25.74
2023-05-22T19:05:35.300Z,25.60
2023-05-22T19:08:02.158Z,25.43
2023-05-22T19:10:28.911Z,25.30
2023-05-22T19:12:55.530Z,25.18
2023-05-22T19:15:22.389Z,25.05
2023-05-22T19:17:49.011Z,24.94
2023-05-22T19:20:15.888Z,24.83
2023-05-22T19:22:42.634Z,24.70
2023-05-22T19:25:09.468Z,24.59
2023-05-22T19:27:38.782Z,24.48
2023-05-22T19:30:06.772Z,24.39
2023-05-22T19:32:33.418Z,24.29
2023-05-22T19:35:00.111Z,24.21
2023-05-22T19:37:26.744Z,24.13
2023-05-22T19:39:54.180Z,24.05
2023-05-22T19:42:20.872Z,23.96
2023-05-22T19:44:47.458Z,23.89
2023-05-22T19:47:14.125Z,23.83
2023-05-22T19:49:40.755Z,23.77
2023-05-22T19:52:07.545Z,23.72
2023-05-22T19:54:35.022Z,23.67
2023-05-22T19:57:04.805Z,23.64
2023-05-22T19:59:31.716Z,23.59
2023-05-22T20:01:58.330Z,23.55
2023-05-22T20:04:25.055Z,23.51
2023-05-22T20:06:51.692Z,23.46
2023-05-22T20:09:18.466Z,23.42
2023-05-22T20:11:45.182Z,23.40
2023-05-22T20:14:12.855Z,23.34
2023-05-22T20:16:39.702Z,23.27
2023-05-22T20:19:06.757Z,23.23
2023-05-22T20:21:33.550Z,23.18
2023-05-22T20:24:00.427Z,23.11
2023-05-22T20:26:27.109Z,23.04
2023-05-22T20:28:53.900Z,22.97
2023-05-22T20:31:20.586Z,22.90
2023-05-22T20:33:47.195Z,22.82
2023-05-22T20:36:13.945Z,22.74
2023-05-22T20:38:40.725Z,22.65
2023-05-22T20:41:09.555Z,22.56
2023-05-22T20:43:36.613Z,22.47
2023-05-22T20:46:03.302Z,22.38
2023-05-22T20:48:30.039Z,22.30
2023-05-22T20:50:56.819Z,22.21
2023-05-22T20:53:23.404Z,22.15
2023-05-22T20:55:50.047Z,22.08
2023-05-22T20:58:16.744Z,22.03
2023-05-22T21:00:43.429Z,21.98
2023-05-22T21:03:10.098Z,21.93
2023-05-22T21:05:36.817Z,21.89
2023-05-22T21:08:03.511Z,21.84
2023-05-22T21:10:30.212Z,21.80
2023-05-22T21:12:56.862Z,21.78
2023-05-22T21:15:23.480Z,21.74
2023-05-22T21:17:50.108Z,21.70
2023-05-22T21:20:16.874Z,21.67
2023-05-22T21:22:43.583Z,21.66
2023-05-22T21:25:10.213Z,21.63
2023-05-22T21:27:36.809Z,21.60
2023-05-22T21:30:03.787Z,21.58
2023-05-22T21:32:30.473Z,21.55
2023-05-22T21:34:57.219Z,21.50
2023-05-22T21:37:23.824Z,21.43
2023-05-22T21:39:50.475Z,21.39
2023-05-22T21:42:17.480Z,21.32
2023-05-22T21:44:44.184Z,21.27
2023-05-22T21:47:11.022Z,21.21
2023-05-22T21:49:39.447Z,21.15
2023-05-22T21:52:06.378Z,21.10
2023-05-22T21:54:33.015Z,21.06
2023-05-22T21:56:59.741Z,21.01
2023-05-22T21:59:26.557Z,20.97
2023-05-22T22:01:53.221Z,20.92
2023-05-22T22:04:20.032Z,20.89
2023-05-22T22:06:46.664Z,20.84
2023-05-22T22:09:13.261Z,20.79
2023-05-22T22:11:39.891Z,20.76
2023-05-22T22:14:06.530Z,20.74
2023-05-22T22:16:34.097Z,20.72
2023-05-22T22:19:01.535Z,20.69
2023-05-22T22:21:28.330Z,20.67
2023-05-22T22:23:55.230Z,20.65
2023-05-22T22:26:21.839Z,20.60
2023-05-22T22:28:48.414Z,20.55
2023-05-22T22:31:15.098Z,20.50
2023-05-22T22:33:41.799Z,20.44
2023-05-22T22:36:08.502Z,20.38
2023-05-22T22:38:35.315Z,20.31
2023-05-22T22:41:02.058Z,20.26
2023-05-22T22:43:28.733Z,20.22
2023-05-22T22:45:55.500Z,20.17
2023-05-22T22:48:22.136Z,20.14
2023-05-22T22:50:49.219Z,20.09
2023-05-22T22:53:15.902Z,20.04
2023-05-22T22:55:42.894Z,20.03
2023-05-22T22:58:09.829Z,19.98
2023-05-22T23:00:36.606Z,19.97
2023-05-22T23:03:03.396Z,19.93
2023-05-22T23:05:30.235Z,19.92
2023-05-22T23:07:56.859Z,19.90
2023-05-22T23:10:23.532Z,19.87
2023-05-22T23:12:50.126Z,19.86
2023-05-22T23:15:16.841Z,19.85
2023-05-22T23:17:43.530Z,19.83
2023-05-22T23:20:11.034Z,19.81
2023-05-22T23:22:37.744Z,19.80
2023-05-22T23:25:04.748Z,19.77
2023-05-22T23:27:31.460Z,19.77
2023-05-22T23:29:58.166Z,19.78
2023-05-22T23:32:24.888Z,19.77
2023-05-22T23:34:51.619Z,19.76
2023-05-22T23:37:18.348Z,19.72
2023-05-22T23:39:44.957Z,19.72
2023-05-22T23:42:11.664Z,19.71
2023-05-22T23:44:38.377Z,19.70
2023-05-22T23:47:06.212Z,19.68
2023-05-22T23:49:33.012Z,19.66
2023-05-22T23:52:00.090Z,19.65
2023-05-22T23:54:26.726Z,19.62
2023-05-22T23:56:53.352Z,19.60
2023-05-22T23:59:20.054Z,19.58
